KAVXKCRQ

Guest
Details From KAVX - Catalina
To KCRQ - Mc Clellan Palomar
Flight Number -
Tags generated
Created
Modified
Stats Distance 59 nm / 110 km
Max Altitude 3,300 ft / 1,006 m
Waypoints 3
Social Downloads 0
Likes 0
Share VATSIM

Download

Looking for another format? Having issues loading an existing format? Contact us
Advertisement - Login to hide

Notes

Basic altitude profile: - Ascent Rate: 2500ft/min - Ascent Speed: 250kts - Cruise Altitude: 35000ft - Cruise Speed: 420kts - Descent Rate: 1500ft/min - Descent Speed: 250kts Options: - Use NATs: yes - Use PACOTS: yes - Use low airways: yes - Use high airways: yes

Route

KAVX AVOLS KCRQ

ID Type Via Altitude Latitude Longitude Leg Dist Tot Dist Heading (true) Name
O KAVX APT - 0 ft / 0 m 33.40466˚ -118.41588˚ - 0 nm - Catalina
AVOLS FIX - 3,300 ft / 1,006 m 33.35179˚ -118.24184˚ 9 nm 9 nm 110° / 110° -
O KCRQ APT - 0 ft / 0 m 33.12827˚ -117.27997˚ 50 nm 59 nm 105° / 106° Mc Clellan Palomar

Altitude Profile

Advertisement - Login to hide

KAVX

Details ICAO KAVX (AVX)
Name Catalina
Region United States
Timezone America/Los_Angeles (UTC-8.0)
Stats Elevation 1,601 ft / 488 m (AMSL)
Location 33.404656° -118.415880°
Runways 1
Magnetic Variation 11.901° E

METAR

KAVX 162351Z AUTO 12003KT 10SM CLR 13/09 A2972 RMK AO2 SLP059 T01280089 10150 20128 51013

Decode

TAF

Not found

Departure Runways

ID Width Length Bearing (true) Bearing (mag) Surface Threshold Offset Overrun Length
04 59 ft / 18 m 3,127 ft / 953 m 54.93° 43.03° Asphalt 131 ft / 40 m 0 ft / 0 m
22 59 ft / 18 m 3,127 ft / 953 m 234.93° 223.03° Asphalt 62 ft / 19 m 0 ft / 0 m

KCRQ

Details ICAO KCRQ (CLD)
Name Mc Clellan Palomar
Region United States
Timezone America/Los_Angeles (UTC-8.0)
Stats Elevation 331 ft / 101 m (AMSL)
Location 33.128268° -117.279967°
Runways 1
Magnetic Variation 11.618° E

METAR

KCRQ 162353Z AUTO 24008KT 10SM CLR 17/11 A2968 RMK AO2 SLP051 T01670106 10183 20156 53007

Decode

TAF

TAF KCRQ 162322Z 1700/1724 20006KT P6SM SCT040 FM171000 05006KT P6SM FEW040 FEW100 WS010/04025KT FM171700 VRB06KT P6SM FEW100

Decode

Destination Runways

ID Width Length Bearing (true) Bearing (mag) Surface Threshold Offset Overrun Length
06 151 ft / 46 m 4,954 ft / 1,510 m 79.08° 67.46° Asphalt 299 ft / 91 m 200 ft / 61 m
24 151 ft / 46 m 4,954 ft / 1,510 m 259.09° 247.47° Asphalt 0 ft / 0 m 200 ft / 61 m

Approach Navaids

Runway Type Ident Frequency Range Bearing (true) Bearing (mag) Slope Elevation
24 Localiser ICRQ 108.70 MHz 18 nm / 33 km 259.07° 247.46° - 325 ft / 99 m (AMSL)
24 Glidescope ICRQ 108.70 MHz 10 nm / 19 km 259.09° 247.47° 3.20° 319 ft / 97 m (AMSL)
24 DME ICRQ 108.70 MHz 18 nm / 33 km - - - 325 ft / 99 m (AMSL)